createdAt,value
2024-01-14T00:00:12.214Z,62.80
2024-01-14T00:02:40.055Z,62.17
2024-01-14T00:05:07.927Z,61.90
2024-01-14T00:07:34.976Z,62.07
2024-01-14T00:10:01.730Z,62.07
2024-01-14T00:12:28.582Z,61.98
2024-01-14T00:14:55.470Z,62.27
2024-01-14T00:17:22.314Z,61.96
2024-01-14T00:19:49.270Z,62.14
2024-01-14T00:22:17.733Z,61.78
2024-01-14T00:24:45.947Z,61.88
2024-01-14T00:27:13.537Z,62.24
2024-01-14T00:29:41.180Z,62.40
2024-01-14T00:32:08.493Z,62.54
2024-01-14T00:34:35.677Z,62.68
2024-01-14T00:37:02.545Z,62.67
2024-01-14T00:39:30.128Z,62.28
2024-01-14T00:41:57.031Z,62.42
2024-01-14T00:44:27.256Z,62.62
2024-01-14T00:46:54.409Z,62.68
2024-01-14T00:49:21.186Z,63.01
2024-01-14T00:51:48.061Z,63.08
2024-01-14T00:54:14.863Z,63.35
2024-01-14T00:56:42.878Z,63.17
2024-01-14T00:59:09.568Z,63.23
2024-01-14T01:01:36.361Z,63.79
2024-01-14T01:04:03.234Z,63.80
2024-01-14T01:06:30.339Z,63.72
2024-01-14T01:08:57.235Z,64.04
2024-01-14T01:11:23.999Z,64.03
2024-01-14T01:13:50.836Z,63.82
2024-01-14T01:16:17.529Z,64.05
2024-01-14T01:18:44.457Z,63.48
2024-01-14T01:21:11.339Z,63.47
2024-01-14T01:23:38.431Z,64.21
2024-01-14T01:26:05.324Z,64.03
2024-01-14T01:28:32.034Z,63.91
2024-01-14T01:30:58.885Z,63.69
2024-01-14T01:33:25.787Z,63.48
2024-01-14T01:35:52.575Z,63.66
2024-01-14T01:38:19.440Z,63.64
2024-01-14T01:40:47.488Z,63.99
2024-01-14T01:43:14.601Z,63.93
2024-01-14T01:45:41.278Z,64.17
2024-01-14T01:48:08.467Z,64.16
2024-01-14T01:50:37.416Z,64.07
2024-01-14T01:53:04.676Z,64.42
2024-01-14T01:55:31.301Z,64.03
2024-01-14T01:57:58.134Z,63.86
2024-01-14T02:00:24.823Z,63.93
2024-01-14T02:02:51.980Z,63.80
2024-01-14T02:05:20.511Z,63.41
2024-01-14T02:07:47.336Z,63.48
2024-01-14T02:10:13.972Z,63.43
2024-01-14T02:12:40.691Z,63.25
2024-01-14T02:15:07.777Z,63.49
2024-01-14T02:17:34.613Z,63.61
2024-01-14T02:20:01.281Z,63.18
2024-01-14T02:22:30.141Z,62.63
2024-01-14T02:24:56.875Z,62.74
2024-01-14T02:27:24.111Z,62.17
2024-01-14T02:29:51.188Z,62.34
2024-01-14T02:32:18.794Z,62.47
2024-01-14T02:34:45.684Z,62.11
2024-01-14T02:37:12.442Z,62.05
2024-01-14T02:39:39.256Z,62.10
2024-01-14T02:42:06.243Z,62.23
2024-01-14T02:44:33.136Z,61.87
2024-01-14T02:47:00.083Z,61.24
2024-01-14T02:49:28.282Z,61.28
2024-01-14T02:51:55.211Z,61.30
2024-01-14T02:54:21.912Z,61.31
2024-01-14T02:56:48.800Z,60.46
2024-01-14T02:59:15.553Z,60.19
2024-01-14T03:01:49.312Z,60.04
2024-01-14T03:04:16.276Z,60.38
2024-01-14T03:06:43.087Z,59.79
2024-01-14T03:09:10.409Z,60.01
2024-01-14T03:11:37.287Z,59.90
2024-01-14T03:14:04.083Z,59.40
2024-01-14T03:16:31.027Z,59.42
2024-01-14T03:18:57.862Z,59.31
2024-01-14T03:21:24.666Z,59.07
2024-01-14T03:23:51.357Z,59.42
2024-01-14T03:26:18.026Z,59.68
2024-01-14T03:28:44.689Z,59.82
2024-01-14T03:31:18.139Z,60.13
2024-01-14T03:33:45.162Z,60.12
2024-01-14T03:36:15.955Z,60.16
2024-01-14T03:38:43.480Z,60.19
2024-01-14T03:41:10.179Z,60.77
2024-01-14T03:43:37.076Z,60.97
2024-01-14T03:46:03.893Z,60.98
2024-01-14T03:48:49.123Z,61.09
2024-01-14T03:51:16.066Z,60.69
2024-01-14T03:53:42.793Z,60.84
2024-01-14T03:56:09.545Z,61.00
2024-01-14T03:58:36.456Z,61.17
2024-01-14T04:01:03.133Z,61.64
2024-01-14T04:03:29.968Z,62.10
2024-01-14T04:05:57.121Z,61.85
2024-01-14T04:08:23.899Z,62.49
2024-01-14T04:10:50.661Z,61.98
2024-01-14T04:13:17.469Z,62.55
2024-01-14T04:15:44.223Z,62.26
2024-01-14T04:18:11.101Z,62.89
2024-01-14T04:20:37.923Z,62.86
2024-01-14T04:23:04.591Z,62.56
2024-01-14T04:25:33.547Z,62.79
2024-01-14T04:28:00.806Z,62.30
2024-01-14T04:30:27.712Z,62.15
2024-01-14T04:32:54.538Z,61.72
2024-01-14T04:35:21.304Z,61.76
2024-01-14T04:37:47.919Z,61.97
2024-01-14T04:40:14.742Z,61.42
2024-01-14T04:42:41.405Z,61.18
2024-01-14T04:45:08.887Z,61.59
2024-01-14T04:47:35.671Z,61.05
2024-01-14T04:50:02.790Z,61.01
2024-01-14T04:52:29.504Z,60.73
2024-01-14T04:54:56.213Z,60.78
2024-01-14T04:57:22.966Z,60.22
2024-01-14T04:59:49.732Z,60.57
2024-01-14T05:02:16.505Z,60.07
2024-01-14T05:04:43.195Z,59.88
2024-01-14T05:07:09.808Z,59.99
2024-01-14T05:09:36.685Z,59.44
2024-01-14T05:12:03.636Z,59.76
2024-01-14T05:14:30.416Z,59.18
2024-01-14T05:16:57.129Z,59.06
2024-01-14T05:19:24.311Z,59.21
2024-01-14T05:21:54.350Z,59.78
2024-01-14T05:24:21.220Z,59.49
2024-01-14T05:26:47.856Z,59.85
2024-01-14T05:29:14.643Z,59.79
2024-01-14T05:31:41.513Z,59.87
2024-01-14T05:34:08.336Z,60.18
2024-01-14T05:36:35.908Z,59.79
2024-01-14T05:39:02.646Z,59.98
2024-01-14T05:41:29.343Z,60.38
2024-01-14T05:43:56.043Z,60.55
2024-01-14T05:46:22.704Z,60.60
2024-01-14T05:48:49.616Z,60.49
2024-01-14T05:51:16.450Z,60.62
2024-01-14T05:53:43.301Z,60.78
2024-01-14T05:56:10.070Z,61.17
2024-01-14T05:58:36.876Z,60.91
2024-01-14T06:01:04.494Z,61.16
2024-01-14T06:03:31.248Z,61.50
2024-01-14T06:05:58.094Z,61.61
2024-01-14T06:08:24.924Z,61.34
2024-01-14T06:10:51.566Z,61.76
2024-01-14T06:13:18.300Z,61.87
2024-01-14T06:15:45.010Z,61.32
2024-01-14T06:18:11.992Z,61.74
2024-01-14T06:20:38.885Z,61.84
2024-01-14T06:23:05.942Z,61.80
2024-01-14T06:25:32.741Z,61.34
2024-01-14T06:27:59.371Z,61.74
2024-01-14T06:30:26.227Z,61.95
2024-01-14T06:32:56.622Z,61.47
2024-01-14T06:35:23.428Z,62.03
2024-01-14T06:37:51.546Z,61.86
2024-01-14T06:40:24.144Z,61.63
2024-01-14T06:42:55.575Z,61.66
2024-01-14T06:45:22.440Z,61.55
2024-01-14T06:47:49.328Z,61.88
2024-01-14T06:50:16.892Z,61.66
2024-01-14T06:52:43.804Z,62.07
2024-01-14T06:55:12.882Z,61.52
2024-01-14T06:57:40.099Z,61.61
2024-01-14T07:00:09.635Z,61.50
2024-01-14T07:02:36.667Z,61.44
2024-01-14T07:05:04.228Z,61.09
2024-01-14T07:07:30.999Z,61.13
2024-01-14T07:09:57.700Z,61.19
2024-01-14T07:12:25.744Z,61.13
2024-01-14T07:14:52.802Z,61.53
2024-01-14T07:17:20.323Z,61.39
2024-01-14T07:19:47.212Z,61.44
2024-01-14T07:22:14.163Z,61.44
2024-01-14T07:24:40.868Z,61.34
2024-01-14T07:27:07.669Z,61.11
2024-01-14T07:29:34.307Z,61.55
2024-01-14T07:32:04.359Z,64.00
2024-01-14T07:34:33.344Z,65.46
2024-01-14T07:37:00.081Z,67.48
2024-01-14T07:39:27.108Z,71.66
2024-01-14T07:41:53.857Z,72.52
2024-01-14T07:44:21.357Z,73.54
2024-01-14T07:46:48.036Z,73.92
2024-01-14T07:49:16.185Z,75.06
2024-01-14T07:51:42.955Z,75.27
2024-01-14T07:54:09.979Z,76.80
2024-01-14T07:56:36.695Z,77.88
2024-01-14T07:59:03.338Z,78.45
2024-01-14T08:01:31.394Z,79.64
2024-01-14T08:03:58.423Z,79.80
2024-01-14T08:06:25.635Z,80.74
2024-01-14T08:08:52.602Z,81.46
2024-01-14T08:11:38.016Z,81.48
2024-01-14T08:14:05.686Z,82.08
2024-01-14T08:16:32.314Z,82.07
2024-01-14T08:18:59.205Z,81.45
2024-01-14T08:21:25.981Z,81.67
2024-01-14T08:23:52.891Z,80.46
2024-01-14T08:26:19.665Z,80.73
2024-01-14T08:28:46.420Z,80.61
2024-01-14T08:31:13.303Z,80.57
2024-01-14T08:33:43.763Z,79.80
2024-01-14T08:36:11.236Z,79.30
2024-01-14T08:38:37.934Z,78.64
2024-01-14T08:41:04.864Z,78.87
2024-01-14T08:43:31.644Z,79.48
2024-01-14T08:45:58.388Z,79.01
2024-01-14T08:48:25.155Z,78.51
2024-01-14T08:50:52.163Z,78.30
2024-01-14T08:53:18.794Z,78.71
2024-01-14T08:55:45.546Z,78.33
2024-01-14T08:58:12.199Z,77.80
2024-01-14T09:00:38.926Z,78.49
2024-01-14T09:03:05.919Z,77.76
2024-01-14T09:05:32.708Z,77.89
2024-01-14T09:07:59.391Z,78.57
2024-01-14T09:10:26.166Z,78.91
2024-01-14T09:12:52.940Z,79.37
2024-01-14T09:15:19.703Z,79.85
2024-01-14T09:17:46.476Z,79.32
2024-01-14T09:20:13.510Z,78.88
2024-01-14T09:22:40.492Z,78.53
2024-01-14T09:25:08.801Z,78.85
2024-01-14T09:27:36.722Z,78.98
2024-01-14T09:30:03.701Z,78.80
2024-01-14T09:32:30.503Z,79.10
2024-01-14T09:34:57.459Z,78.64
2024-01-14T09:37:24.519Z,78.21
2024-01-14T09:40:10.069Z,78.14
2024-01-14T09:42:40.542Z,77.95
2024-01-14T09:45:07.578Z,77.71
2024-01-14T09:47:34.971Z,77.94
2024-01-14T09:50:02.450Z,77.91
2024-01-14T09:52:30.646Z,77.76
2024-01-14T09:54:57.620Z,77.99
2024-01-14T09:57:25.006Z,78.20
2024-01-14T09:59:52.345Z,78.83
2024-01-14T10:02:20.080Z,79.15
2024-01-14T10:04:48.222Z,79.23
2024-01-14T10:07:15.598Z,79.48
2024-01-14T10:09:43.920Z,79.80
2024-01-14T10:12:11.468Z,79.16
2024-01-14T10:14:38.917Z,79.88
2024-01-14T10:17:05.889Z,79.37
2024-01-14T10:19:32.840Z,79.45
2024-01-14T10:22:14.516Z,80.00
2024-01-14T10:24:50.642Z,79.28
2024-01-14T10:27:33.690Z,79.41
2024-01-14T10:30:05.719Z,80.22
2024-01-14T10:33:14.858Z,80.51
2024-01-14T10:35:20.381Z,80.47
2024-01-14T10:37:47.428Z,80.71
2024-01-14T10:40:14.444Z,80.22
2024-01-14T10:42:41.235Z,79.83
2024-01-14T10:45:08.524Z,80.43
2024-01-14T10:47:36.007Z,79.85
2024-01-14T10:50:03.122Z,79.80
2024-01-14T10:52:34.147Z,80.05
2024-01-14T10:55:12.632Z,79.45
2024-01-14T10:57:39.770Z,79.00
2024-01-14T11:00:10.942Z,79.13
2024-01-14T11:02:39.300Z,79.44
2024-01-14T11:05:10.038Z,79.24
2024-01-14T11:07:55.516Z,79.72
2024-01-14T11:10:22.320Z,79.64
2024-01-14T11:12:54.941Z,79.55
2024-01-14T11:15:28.944Z,78.70
2024-01-14T11:18:07.595Z,79.22
2024-01-14T11:20:47.045Z,78.82
2024-01-14T11:23:24.417Z,78.79
2024-01-14T11:25:51.245Z,79.52
2024-01-14T11:28:18.224Z,79.72
2024-01-14T11:30:58.729Z,79.51
2024-01-14T11:33:33.554Z,80.19
2024-01-14T11:36:01.965Z,80.73
2024-01-14T11:38:38.954Z,80.06
2024-01-14T11:41:31.200Z,79.93
2024-01-14T11:44:03.682Z,79.60
2024-01-14T11:46:39.548Z,79.37
2024-01-14T11:49:24.786Z,79.53
2024-01-14T11:51:55.574Z,79.45
2024-01-14T11:54:24.250Z,79.08
2024-01-14T11:56:51.890Z,79.10
2024-01-14T11:59:33.697Z,80.49
2024-01-14T12:02:15.079Z,81.10
2024-01-14T12:04:41.959Z,80.92
2024-01-14T12:07:08.889Z,80.37
2024-01-14T12:09:35.920Z,80.31
2024-01-14T12:12:06.502Z,79.92
2024-01-14T12:14:38.214Z,81.13
2024-01-14T12:17:11.366Z,81.60
2024-01-14T12:19:38.311Z,82.12
2024-01-14T12:22:05.332Z,82.54
2024-01-14T12:24:32.335Z,82.25
2024-01-14T12:26:59.415Z,82.07
2024-01-14T12:29:26.238Z,80.21
2024-01-14T12:31:56.771Z,80.33
2024-01-14T12:34:24.773Z,79.96
2024-01-14T12:36:54.376Z,80.13
2024-01-14T12:39:22.213Z,80.05
2024-01-14T12:41:54.246Z,79.95
2024-01-14T12:44:23.121Z,81.79
2024-01-14T12:46:56.464Z,82.04
2024-01-14T12:49:26.224Z,81.97
2024-01-14T12:52:02.729Z,82.97
2024-01-14T12:54:29.756Z,82.95
2024-01-14T12:57:04.565Z,80.82
2024-01-14T12:59:32.639Z,81.69
2024-01-14T13:02:01.793Z,81.42
2024-01-14T13:04:28.785Z,81.73
2024-01-14T13:06:58.896Z,82.09
2024-01-14T13:09:27.160Z,82.31
2024-01-14T13:11:53.897Z,83.72
2024-01-14T13:14:20.614Z,83.91
2024-01-14T13:16:53.826Z,84.51
2024-01-14T13:19:22.236Z,84.27
2024-01-14T13:21:49.861Z,83.63
2024-01-14T13:24:16.905Z,83.34
2024-01-14T13:26:43.930Z,84.42
2024-01-14T13:29:12.026Z,84.47
2024-01-14T13:31:41.269Z,84.25
2024-01-14T13:34:09.351Z,83.92
2024-01-14T13:36:36.787Z,84.07
2024-01-14T13:39:05.871Z,83.38
2024-01-14T13:41:33.689Z,82.94
2024-01-14T13:44:12.412Z,82.71
2024-01-14T13:46:48.037Z,82.37
2024-01-14T13:49:15.571Z,82.13
2024-01-14T13:51:42.869Z,81.91
2024-01-14T13:54:28.686Z,81.71
2024-01-14T13:56:56.098Z,81.96
2024-01-14T13:59:23.611Z,82.41
2024-01-14T14:01:50.975Z,82.64
2024-01-14T14:04:25.355Z,82.96
2024-01-14T14:07:11.929Z,83.49
2024-01-14T14:09:38.796Z,84.14
2024-01-14T14:12:06.099Z,84.02
2024-01-14T14:14:33.799Z,83.94
2024-01-14T14:17:00.493Z,84.34
2024-01-14T14:19:27.367Z,85.52
2024-01-14T14:22:00.273Z,85.19
2024-01-14T14:24:30.625Z,85.38
2024-01-14T14:26:57.859Z,85.81
2024-01-14T14:29:26.326Z,85.96
2024-01-14T14:31:54.393Z,85.88
2024-01-14T14:34:22.061Z,86.32
2024-01-14T14:36:50.118Z,85.44
2024-01-14T14:39:18.292Z,85.07
2024-01-14T14:41:45.328Z,86.49
2024-01-14T14:44:12.252Z,86.45
2024-01-14T14:46:40.154Z,86.24
2024-01-14T14:49:07.225Z,85.97
2024-01-14T14:51:39.199Z,86.95
2024-01-14T14:54:11.809Z,87.13
2024-01-14T14:56:39.085Z,87.69
2024-01-14T14:59:06.286Z,87.91
2024-01-14T15:01:41.180Z,89.39
2024-01-14T15:04:11.964Z,89.33
2024-01-14T15:06:40.397Z,88.87
2024-01-14T15:09:09.397Z,88.72
2024-01-14T15:11:39.363Z,89.29
2024-01-14T15:14:10.914Z,89.14
2024-01-14T15:16:38.114Z,89.49
2024-01-14T15:19:05.396Z,90.17
2024-01-14T15:21:52.509Z,90.55
2024-01-14T15:24:19.425Z,90.99
2024-01-14T15:26:46.678Z,91.07
2024-01-14T15:29:13.461Z,90.60
2024-01-14T15:31:40.417Z,90.34
2024-01-14T15:34:07.691Z,90.35
2024-01-14T15:36:34.773Z,90.45
2024-01-14T15:39:01.707Z,90.07
2024-01-14T15:41:29.442Z,90.38
2024-01-14T15:43:56.228Z,89.92
2024-01-14T15:46:22.934Z,89.97
2024-01-14T15:48:51.496Z,89.82
2024-01-14T15:51:19.293Z,90.19
2024-01-14T15:53:46.134Z,90.36
2024-01-14T15:56:13.116Z,90.51
2024-01-14T15:58:41.504Z,90.54
2024-01-14T16:01:11.991Z,90.69
2024-01-14T16:03:43.482Z,90.71
2024-01-14T16:06:12.213Z,90.55
2024-01-14T16:08:38.854Z,91.20
2024-01-14T16:11:07.312Z,91.12
2024-01-14T16:13:38.149Z,91.45
2024-01-14T16:16:06.450Z,90.97
2024-01-14T16:18:36.625Z,91.51
2024-01-14T16:21:06.433Z,92.33
2024-01-14T16:23:39.502Z,92.37
2024-01-14T16:26:08.296Z,92.57
2024-01-14T16:28:35.215Z,93.40
2024-01-14T16:31:10.481Z,93.77
2024-01-14T16:33:47.088Z,94.28
2024-01-14T16:36:16.367Z,94.23
2024-01-14T16:38:44.236Z,94.67
2024-01-14T16:41:11.593Z,95.76
2024-01-14T16:43:38.599Z,97.64
2024-01-14T16:46:06.569Z,98.46
2024-01-14T16:48:34.419Z,98.07
2024-01-14T16:51:08.638Z,97.48
2024-01-14T16:53:43.648Z,96.18
2024-01-14T16:56:13.259Z,93.52
2024-01-14T16:58:42.375Z,90.92
2024-01-14T17:01:15.806Z,89.30
2024-01-14T17:03:46.674Z,87.68
2024-01-14T17:06:15.923Z,85.86
2024-01-14T17:08:45.544Z,84.56
2024-01-14T17:11:14.361Z,83.45
2024-01-14T17:13:41.762Z,82.99
2024-01-14T17:16:10.663Z,82.45
2024-01-14T17:18:40.366Z,82.18
2024-01-14T17:21:08.072Z,81.61
2024-01-14T17:23:35.377Z,81.06
2024-01-14T17:26:07.584Z,80.92
2024-01-14T17:28:54.230Z,80.05
2024-01-14T17:31:21.176Z,79.84
2024-01-14T17:33:49.226Z,79.74
2024-01-14T17:36:18.120Z,79.49
2024-01-14T17:38:46.514Z,79.46
2024-01-14T17:41:13.378Z,78.93
2024-01-14T17:43:40.805Z,78.88
2024-01-14T17:46:09.725Z,78.90
2024-01-14T17:48:41.661Z,78.68
2024-01-14T17:51:10.293Z,78.63
2024-01-14T17:53:42.631Z,78.10
2024-01-14T17:56:09.620Z,77.88
2024-01-14T17:58:36.383Z,77.09
2024-01-14T18:01:05.583Z,76.86
2024-01-14T18:03:32.630Z,76.85
2024-01-14T18:06:00.018Z,77.09
2024-01-14T18:08:26.946Z,76.79
2024-01-14T18:10:53.656Z,76.87
2024-01-14T18:13:21.398Z,77.26
2024-01-14T18:15:48.968Z,76.39
2024-01-14T18:18:16.529Z,76.80
2024-01-14T18:20:44.187Z,76.49
2024-01-14T18:23:13.550Z,76.42
2024-01-14T18:25:46.081Z,76.20
2024-01-14T18:28:14.256Z,76.16
2024-01-14T18:30:41.339Z,76.19
2024-01-14T18:33:11.748Z,75.78
2024-01-14T18:35:45.603Z,75.81
2024-01-14T18:38:14.670Z,75.64
2024-01-14T18:40:41.812Z,75.49
2024-01-14T18:43:09.969Z,75.55
2024-01-14T18:45:37.849Z,75.70
2024-01-14T18:48:06.963Z,75.68
2024-01-14T18:50:35.133Z,75.13
2024-01-14T18:53:02.500Z,75.41
2024-01-14T18:55:29.236Z,75.39
2024-01-14T18:57:56.149Z,75.00
2024-01-14T19:00:22.999Z,75.15
2024-01-14T19:02:50.062Z,74.93
2024-01-14T19:05:18.023Z,74.99
2024-01-14T19:07:45.550Z,75.39
2024-01-14T19:10:12.404Z,74.94
2024-01-14T19:12:39.212Z,74.97
2024-01-14T19:15:06.913Z,74.93
2024-01-14T19:17:34.252Z,74.83
2024-01-14T19:20:01.715Z,74.95
2024-01-14T19:22:28.920Z,75.19
2024-01-14T19:24:55.838Z,74.50
2024-01-14T19:27:23.324Z,74.51
2024-01-14T19:29:50.529Z,74.49
2024-01-14T19:32:17.411Z,74.03
2024-01-14T19:34:44.542Z,73.94
2024-01-14T19:37:11.689Z,74.06
2024-01-14T19:39:42.975Z,73.85
2024-01-14T19:42:11.661Z,73.79
2024-01-14T19:44:38.765Z,73.57
2024-01-14T19:47:05.876Z,73.41
2024-01-14T19:49:32.764Z,73.70
2024-01-14T19:51:59.823Z,73.13
2024-01-14T19:54:26.654Z,73.51
2024-01-14T19:56:54.294Z,73.62
2024-01-14T19:59:24.124Z,73.04
2024-01-14T20:01:50.981Z,73.03
2024-01-14T20:04:17.938Z,72.89
2024-01-14T20:06:50.769Z,72.77
2024-01-14T20:09:23.760Z,72.71
2024-01-14T20:11:53.765Z,72.45
2024-01-14T20:14:21.086Z,73.22
2024-01-14T20:16:49.023Z,73.25
2024-01-14T20:19:16.443Z,73.29
2024-01-14T20:21:43.296Z,73.11
2024-01-14T20:24:10.794Z,72.82
2024-01-14T20:26:57.547Z,73.01
2024-01-14T20:29:24.388Z,73.11
2024-01-14T20:31:51.152Z,72.90
2024-01-14T20:34:18.418Z,72.53
2024-01-14T20:36:45.580Z,72.10
2024-01-14T20:39:12.367Z,72.21
2024-01-14T20:41:39.001Z,72.35
2024-01-14T20:44:06.272Z,72.35
2024-01-14T20:46:33.005Z,71.96
2024-01-14T20:48:59.794Z,72.48
2024-01-14T20:51:27.232Z,71.63
2024-01-14T20:53:53.965Z,71.51
2024-01-14T20:56:20.888Z,72.14
2024-01-14T20:58:47.562Z,71.79
2024-01-14T21:01:15.475Z,71.52
2024-01-14T21:03:42.582Z,71.13
2024-01-14T21:06:14.842Z,71.75
2024-01-14T21:08:43.086Z,71.13
2024-01-14T21:11:09.689Z,71.16
2024-01-14T21:13:36.451Z,70.96
2024-01-14T21:16:03.191Z,71.05
2024-01-14T21:18:30.029Z,71.57
2024-01-14T21:20:57.288Z,71.65
2024-01-14T21:23:24.081Z,70.95
2024-01-14T21:25:50.823Z,71.17
2024-01-14T21:28:18.546Z,71.46
2024-01-14T21:30:45.360Z,71.14
2024-01-14T21:33:12.283Z,70.94
2024-01-14T21:35:39.013Z,71.22
2024-01-14T21:38:06.268Z,70.88
2024-01-14T21:40:32.995Z,71.02
2024-01-14T21:42:59.723Z,70.94
2024-01-14T21:45:28.618Z,70.79
2024-01-14T21:47:55.705Z,71.02
2024-01-14T21:50:22.836Z,70.67
2024-01-14T21:52:49.772Z,70.94
2024-01-14T21:55:16.490Z,70.69
2024-01-14T21:57:43.429Z,70.79
2024-01-14T22:00:11.023Z,70.61
2024-01-14T22:02:38.397Z,70.79
2024-01-14T22:05:06.571Z,70.19
2024-01-14T22:07:33.827Z,70.51
2024-01-14T22:10:01.162Z,70.27
2024-01-14T22:12:28.134Z,70.53
2024-01-14T22:14:54.827Z,70.07
2024-01-14T22:17:21.610Z,70.45
2024-01-14T22:19:48.508Z,69.78
2024-01-14T22:22:15.422Z,69.93
2024-01-14T22:24:45.980Z,70.31
2024-01-14T22:27:13.026Z,69.77
2024-01-14T22:29:40.232Z,69.75
2024-01-14T22:32:07.400Z,69.87
2024-01-14T22:34:34.576Z,69.88
2024-01-14T22:37:01.502Z,69.38
2024-01-14T22:39:28.276Z,69.76
2024-01-14T22:41:55.011Z,69.43
2024-01-14T22:44:22.136Z,69.35
2024-01-14T22:46:49.064Z,69.63
2024-01-14T22:49:16.316Z,69.57
2024-01-14T22:51:44.013Z,69.96
2024-01-14T22:54:12.390Z,69.37
2024-01-14T22:56:39.188Z,69.63
2024-01-14T22:59:05.905Z,69.72
2024-01-14T23:01:32.821Z,69.88
2024-01-14T23:03:59.746Z,70.01
2024-01-14T23:06:27.087Z,69.75
2024-01-14T23:08:53.950Z,70.13
2024-01-14T23:11:20.727Z,69.74
2024-01-14T23:13:47.352Z,69.81
2024-01-14T23:16:14.185Z,69.94
2024-01-14T23:18:41.230Z,70.18
2024-01-14T23:21:08.114Z,70.15
2024-01-14T23:23:34.766Z,70.09
2024-01-14T23:26:01.780Z,70.03
2024-01-14T23:28:28.753Z,69.81
2024-01-14T23:30:55.712Z,70.29
2024-01-14T23:33:22.571Z,69.84
2024-01-14T23:35:49.392Z,69.56
2024-01-14T23:38:16.047Z,69.76
2024-01-14T23:40:42.874Z,69.83
2024-01-14T23:43:09.715Z,69.71
2024-01-14T23:45:36.465Z,69.75
2024-01-14T23:48:03.424Z,69.77
2024-01-14T23:50:30.703Z,69.90
2024-01-14T23:52:57.388Z,69.81
2024-01-14T23:55:24.158Z,69.72
2024-01-14T23:57:50.860Z,70.02
